Latest Weather Observations for Roseworthy

IDS60901

Issued at 7:35 am CDT Sunday 23 November 2014 (issued every 10 minutes, with the page automatically refreshed every 10 minutes)

About weather observations | Map of Adelaide area stations | Latest observations for Adelaide area | Other Formats
Station Details ID: 023122 Name: ROSEWORTHY AWS Lat: -34.51 Lon: 138.68 Height: 65.0 m
Data from the previous 72 hours. | See also: Recent months at Roseworthy
Date/Time
CDT
Tmp

°C
App
Tmp
°C
Dew
Point
°C
Rel
Hum
%
Delta-T

°C
Wind Press
QNH
hPa
Press
MSL
hPa
Rain
since
9 am
mm
Dir
 
Spd
km/h
Gust
km/h
Spd
kts
Gust
kts
23/07:30am 16.0 15.5 13.7 86 1.3 E 9 11 5 6 1012.2 - 9.0
23/07:00am 13.8 13.5 12.7 93 0.6 E 6 7 3 4 1012.3 - 9.0
23/06:30am 11.6 10.5 10.7 94 0.5 E 7 9 4 5 1012.2 - 9.0
23/06:00am 10.6 10.5 9.5 93 0.6 CALM 0 0 0 0 1012.2 1012.1 9.0
23/05:30am 10.7 9.3 9.6 93 0.6 NE 7 9 4 5 1011.9 - 9.0
23/05:00am 11.1 9.4 10.0 93 0.6 NNE 9 11 5 6 1012.0 - 9.0
23/04:30am 10.9 10.1 9.7 92 0.6 N 4 7 2 4 1012.0 - 9.0
23/04:00am 11.4 11.5 10.1 92 0.7 CALM 0 0 0 0 1011.7 - 9.0
23/03:30am 11.9 11.3 10.5 91 0.7 NE 4 7 2 4 1011.4 - 9.0
23/03:00am 12.1 11.0 10.5 90 0.8 ENE 7 9 4 5 1011.5 1011.4 9.0
23/02:30am 12.9 11.5 11.0 88 1.0 E 9 11 5 6 1011.5 - 9.0
23/02:00am 13.2 12.4 10.9 86 1.2 ESE 6 11 3 6 1011.6 - 9.0
23/01:30am 13.9 12.7 11.6 86 1.2 SE 9 11 5 6 1011.7 - 9.0
23/01:00am 14.5 14.3 13.0 91 0.8 E 6 9 3 5 1011.9 - 9.0
23/12:30am 15.6 15.6 14.3 92 0.7 SSW 7 9 4 5 1011.9 - 9.0
23/12:00am 14.8 14.5 13.3 91 0.8 WNW 7 9 4 5 1012.0 1011.9 9.0
 
Date/Time
CDT
Tmp

°C
App
Tmp
°C
Dew
Point
°C
Rel
Hum
%
Delta-T

°C
Wind Press
QNH
hPa
Press
MSL
hPa
Rain
since
9 am
mm
Dir
 
Spd
km/h
Gust
km/h
Spd
kts
Gust
kts
22/11:30pm 15.0 14.4 13.5 91 0.8 NW 9 11 5 6 1011.9 - 9.0
22/11:00pm 15.1 14.5 13.6 91 0.8 NNW 9 11 5 6 1011.9 - 9.0
22/10:30pm 15.4 14.8 13.6 89 1.0 W 9 11 5 6 1011.8 - 9.0
22/10:00pm 16.2 15.7 13.9 86 1.3 W 9 11 5 6 1011.4 - 9.0
22/09:30pm 17.0 16.4 14.5 85 1.4 WSW 11 13 6 7 1011.0 - 9.0
22/09:00pm 17.7 17.0 14.4 81 1.9 WSW 11 13 6 7 1010.8 1010.7 9.0
22/08:30pm 18.5 17.0 13.1 71 3.1 SW 13 19 7 10 1010.1 - 9.0
22/08:00pm 19.6 17.5 13.5 68 3.5 SW 17 22 9 12 1009.7 - 9.0
22/07:30pm 20.9 18.0 14.1 65 4.0 SW 22 30 12 16 1009.2 - 9.0
22/07:00pm 21.5 19.0 14.2 63 4.3 SSW 20 28 11 15 1008.5 - 9.0
22/06:30pm 22.3 19.2 14.4 61 4.6 SSW 24 33 13 18 1007.9 - 9.0
22/06:00pm 24.3 21.2 15.5 58 5.3 SW 26 37 14 20 1007.3 1007.3 9.0
22/05:30pm 25.7 23.5 16.0 55 5.9 SW 22 33 12 18 1006.8 - 9.0
22/05:00pm 27.7 25.7 15.0 45 7.7 SW 19 30 10 16 1006.6 - 9.0
22/04:30pm 28.1 25.7 12.8 38 9.0 SSW 17 26 9 14 1006.2 - 9.0
22/04:00pm 28.7 27.1 14.9 43 8.4 SW 17 24 9 13 1006.2 - 9.0
22/03:30pm 28.9 27.0 14.3 40 8.8 SW 17 24 9 13 1006.1 - 9.0
22/03:00pm 28.3 26.5 13.4 40 8.9 WSW 15 20 8 11 1006.1 1006.1 9.0
22/02:30pm 29.0 28.3 15.5 44 8.3 SSE 13 17 7 9 1006.1 - 8.8
22/02:00pm 26.7 26.9 18.6 61 5.2 E 15 20 8 11 1006.3 - 8.8
22/01:30pm 22.8 23.1 17.0 70 3.6 ESE 11 15 6 8 1006.7 - 8.8
22/01:00pm 25.0 22.8 14.8 53 6.1 ENE 20 30 11 16 1006.3 - 8.6
22/12:30pm 24.6 22.5 16.1 59 5.2 E 22 32 12 17 1006.8 - 8.6
22/12:00pm 24.7 22.9 17.9 66 4.3 E 24 33 13 18 1006.7 1006.7 8.6
22/11:30am 22.0 22.6 19.4 85 1.7 SE 15 22 8 12 1007.6 - 8.6
22/11:09am 19.8 18.7 16.4 81 2.0 E 17 70 9 38 1007.5 - 7.8
22/11:06am 20.6 20.3 16.4 77 2.5 SSW 13 70 7 38 1009.6 - 5.4
22/11:04am 20.8 13.8 16.4 76 2.7 WSW 48 70 26 38 1011.8 - 2.6
22/11:02am 21.0 12.6 16.6 76 2.7 W 56 70 30 38 1011.9 - 2.6
22/11:01am 21.6 17.9 17.4 77 2.6 WSW 33 65 18 35 1011.4 - 2.6
22/11:00am 22.0 19.6 17.4 75 2.8 WSW 26 54 14 29 1010.8 - 2.6
22/10:59am 22.1 20.9 17.5 75 2.8 WSW 20 33 11 18 1009.6 - 2.6
22/10:30am 22.0 21.6 18.8 82 2.0 ESE 19 24 10 13 1007.6 - 2.6
22/10:00am 22.3 20.8 16.8 71 3.4 E 20 32 11 17 1008.1 - 0.8
22/09:30am 19.3 17.8 16.7 85 1.6 E 20 28 11 15 1008.4 - 0.8
22/09:00am 19.2 17.3 15.1 77 2.4 SE 19 26 10 14 1008.9 1008.8 5.6
22/08:30am 19.5 17.8 13.7 69 3.3 SW 15 26 8 14 1010.1 - 3.4
22/08:25am 19.0 16.7 14.1 73 2.8 SW 19 26 10 14 1010.2 - 2.2
22/08:00am 18.3 16.7 13.8 75 2.6 E 15 20 8 11 1007.8 - 2.2
22/07:30am 17.9 16.6 13.6 76 2.4 E 13 26 7 14 1008.0 - 2.2
22/07:00am 17.1 14.5 13.2 78 2.2 ENE 19 20 10 11 1006.5 - 1.0
22/06:30am 17.7 15.5 12.2 70 3.0 ENE 15 20 8 11 1006.3 - 0.2
22/06:00am 18.5 17.9 12.3 67 3.5 ESE 7 11 4 6 1007.2 1007.2 0.2
22/05:30am 19.9 18.0 9.2 50 5.7 NNW 9 17 5 9 1007.3 - 0.0
22/05:27am 19.7 17.9 9.3 51 5.5 WNW 9 13 5 7 1007.5 - 0.0
22/05:00am 22.3 15.9 5.3 33 8.5 NE 28 39 15 21 1005.5 - 0.0
22/04:30am 21.9 16.0 5.8 35 8.1 NE 26 35 14 19 1005.3 - 0.0
22/04:00am 20.4 15.1 6.7 41 6.9 NE 24 33 13 18 1005.5 - 0.0
22/03:30am 19.5 14.2 6.6 43 6.5 NE 24 32 13 17 1005.6 - 0.0
22/03:00am 19.8 14.4 6.2 41 6.8 NE 24 32 13 17 1005.6 1005.6 0.0
22/02:30am 19.6 13.8 6.3 42 6.7 NE 26 35 14 19 1006.2 - 0.0
22/02:00am 19.9 14.1 6.3 41 6.8 NE 26 37 14 20 1006.6 - 0.0
22/01:30am 19.2 13.6 7.3 46 6.1 ENE 26 35 14 19 1006.7 - 0.0
22/01:00am 18.9 13.4 7.4 47 5.9 NE 26 33 14 18 1007.2 - 0.0
22/12:30am 18.9 14.2 7.7 48 5.7 NE 22 28 12 15 1008.0 - 0.0
22/12:00am 19.4 15.0 7.2 45 6.2 ENE 20 28 11 15 1008.3 1008.2 0.0
 
Date/Time
CDT
Tmp

°C
App
Tmp
°C
Dew
Point
°C
Rel
Hum
%
Delta-T

°C
Wind Press
QNH
hPa
Press
MSL
hPa
Rain
since
9 am
mm
Dir
 
Spd
km/h
Gust
km/h
Spd
kts
Gust
kts
21/11:30pm 19.4 15.2 7.5 46 6.1 NE 19 24 10 13 1008.9 - 0.0
21/11:00pm 19.8 16.5 7.9 46 6.1 ENE 15 20 8 11 1009.2 - 0.0
21/10:30pm 18.2 15.6 7.9 51 5.3 ENE 11 15 6 8 1009.6 - 0.0
21/10:00pm 16.6 13.5 7.3 54 4.6 E 13 13 7 7 1009.9 - 0.0
21/09:30pm 16.8 14.1 7.2 53 4.8 E 11 13 6 7 1010.1 - 0.0
21/09:00pm 17.8 15.8 7.2 50 5.3 ESE 7 9 4 5 1010.0 1009.9 0.0
21/08:30pm 21.8 19.2 6.1 36 7.9 S 9 13 5 7 1009.9 - 0.0
21/08:00pm 23.3 20.7 6.1 33 8.8 S 9 11 5 6 1009.9 - 0.0
21/07:30pm 25.4 22.4 6.1 29 10.0 S 11 13 6 7 1009.8 - 0.0
21/07:00pm 26.8 23.8 6.2 27 10.8 SSE 11 17 6 9 1009.6 - 0.0
21/06:30pm 27.1 24.1 6.0 26 11.0 S 11 19 6 10 1009.5 - 0.0
21/06:00pm 27.7 24.0 6.5 26 11.2 S 15 20 8 11 1009.6 1009.5 0.0
21/05:30pm 27.0 23.6 5.9 26 11.0 S 13 19 7 10 1009.5 - 0.0
21/05:00pm 28.4 25.4 5.9 24 11.8 SW 11 19 6 10 1009.6 - 0.0
21/04:30pm 29.4 26.4 6.1 23 12.3 SW 11 20 6 11 1009.8 - 0.0
21/04:00pm 28.3 24.6 4.6 22 12.2 SW 13 24 7 13 1010.1 - 0.0
21/03:30pm 28.1 24.6 3.7 21 12.3 SW 11 24 6 13 1010.4 - 0.0
21/03:00pm 27.5 23.8 4.5 23 11.7 W 13 26 7 14 1010.8 1010.7 0.0
21/02:30pm 26.6 23.9 5.5 26 10.9 WSW 9 19 5 10 1010.9 - 0.0
21/02:00pm 26.1 22.8 4.6 25 10.9 WSW 11 19 6 10 1011.4 - 0.0
21/01:30pm 25.7 23.0 5.8 28 10.3 WNW 9 20 5 11 1011.9 - 0.0
21/01:00pm 24.5 20.6 5.3 29 9.7 W 15 24 8 13 1012.3 - 0.0
21/12:30pm 24.5 20.8 6.3 31 9.4 W 15 26 8 14 1012.8 - 0.0
21/12:00pm 23.2 20.0 6.9 35 8.4 WSW 13 26 7 14 1012.9 1012.8 0.0
21/11:30am 23.0 20.1 8.3 39 7.8 WSW 13 19 7 10 1013.1 - 0.0
21/11:00am 22.0 19.6 8.5 42 7.1 WSW 11 17 6 9 1013.4 - 0.0
21/10:30am 20.3 17.3 7.7 44 6.5 W 13 20 7 11 1013.5 - 0.0
21/10:00am 20.4 18.3 9.6 50 5.8 WSW 11 20 6 11 1013.4 - 0.0
21/09:30am 19.6 17.4 9.2 51 5.5 W 11 17 6 9 1013.3 - 0.0
21/09:00am 18.3 16.0 9.1 55 4.8 WNW 11 17 6 9 1013.1 1013.0 4.4
21/08:30am 18.2 15.6 9.3 56 4.7 W 13 17 7 9 1013.1 - 4.4
21/08:00am 17.5 15.4 9.7 60 4.1 W 11 15 6 8 1012.9 - 4.4
21/07:30am 15.7 14.3 10.9 73 2.6 NW 9 11 5 6 1012.6 - 4.4
21/07:00am 14.6 13.3 11.2 80 1.8 NNW 9 11 5 6 1012.3 - 4.4
21/06:30am 13.5 12.0 10.5 82 1.6 NW 9 11 5 6 1012.2 - 4.4
21/06:00am 14.4 12.7 11.2 81 1.7 W 11 15 6 8 1012.4 1012.3 4.4
21/05:30am 14.4 12.6 11.0 80 1.8 W 11 13 6 7 1012.0 - 4.4
21/05:00am 14.9 13.2 11.3 79 1.9 W 11 15 6 8 1011.4 - 4.4
21/04:30am 15.1 13.9 11.7 80 1.8 W 9 13 5 7 1011.6 - 4.4
21/04:00am 15.3 13.7 11.5 78 2.0 WSW 11 15 6 8 1011.4 - 4.4
21/03:30am 15.5 14.0 11.9 79 2.0 W 11 13 6 7 1011.7 - 4.4
21/03:00am 15.4 13.8 12.7 84 1.5 WSW 13 19 7 10 1011.6 1011.5 4.4
21/02:30am 15.3 14.7 13.5 89 1.0 SW 9 13 5 7 1011.6 - 4.4
21/02:00am 15.2 13.4 13.2 88 1.1 SW 15 19 8 10 1011.6 - 4.4
21/01:30am 16.2 14.3 13.1 82 1.7 WSW 15 24 8 13 1011.7 - 4.4
21/01:00am 16.4 13.4 12.6 78 2.1 WSW 20 30 11 16 1011.8 - 4.4
21/12:30am 16.6 13.7 12.8 78 2.1 WSW 20 28 11 15 1011.8 - 4.4
21/12:00am 16.8 13.9 12.3 75 2.5 WSW 19 26 10 14 1011.7 1011.6 4.4
 
Date/Time
CDT
Tmp

°C
App
Tmp
°C
Dew
Point
°C
Rel
Hum
%
Delta-T

°C
Wind Press
QNH
hPa
Press
MSL
hPa
Rain
since
9 am
mm
Dir
 
Spd
km/h
Gust
km/h
Spd
kts
Gust
kts
20/11:30pm 16.9 15.1 12.2 74 2.6 WSW 13 17 7 9 1011.7 - 4.4
20/11:00pm 17.1 14.3 12.6 75 2.5 SW 19 26 10 14 1011.7 - 4.4
20/10:30pm 17.5 15.2 14.0 80 2.0 SW 19 26 10 14 1011.7 - 4.4
20/10:00pm 17.8 16.2 13.9 78 2.2 WSW 15 22 8 12 1011.6 - 4.4
20/09:30pm 17.7 16.5 14.0 79 2.1 WSW 13 22 7 12 1011.1 - 4.4
20/09:00pm 17.6 16.1 14.1 80 2.0 SW 15 20 8 11 1010.7 1010.6 4.4
20/08:30pm 17.9 15.7 14.4 80 2.0 SSW 19 22 10 12 1010.2 - 4.4
20/08:00pm 18.0 16.2 14.5 80 2.0 SSW 17 24 9 13 1010.0 - 4.4
20/07:30pm 18.5 16.0 14.2 76 2.5 SSW 20 28 11 15 1009.3 - 4.4
20/07:00pm 19.9 17.2 14.7 72 3.0 SSW 22 30 12 16 1008.5 - 4.4
20/06:30pm 22.1 20.2 15.7 67 3.8 SW 20 35 11 19 1007.8 - 4.4
20/06:00pm 23.0 20.2 15.3 62 4.6 W 24 35 13 19 1007.8 1007.7 4.4
20/05:30pm 23.2 18.9 15.8 63 4.5 WSW 33 46 18 25 1007.2 - 4.4
20/05:00pm 23.8 20.9 17.1 66 4.1 W 28 37 15 20 1006.9 - 4.4
20/04:30pm 22.9 20.9 18.4 76 2.8 W 26 37 14 20 1006.9 - 4.4
20/04:00pm 23.4 23.6 20.5 84 1.9 WNW 20 32 11 17 1006.8 - 4.4
20/03:30pm 21.6 21.0 18.8 84 1.8 NNW 20 28 11 15 1006.8 - 3.4
20/03:00pm 22.6 22.1 19.0 80 2.3 NNW 20 30 11 16 1007.2 1007.2 2.4
20/02:30pm 22.7 20.5 19.5 82 2.0 NNW 30 41 16 22 1007.8 - 2.4
20/02:00pm 21.0 18.3 18.4 85 1.6 NNW 30 43 16 23 1008.2 - 2.4
20/01:30pm 21.1 19.2 18.5 85 1.6 NNW 26 35 14 19 1008.5 - 2.4
20/01:00pm 21.3 19.9 18.9 86 1.5 N 24 33 13 18 1008.7 - 2.4
20/12:30pm 20.1 19.4 18.2 89 1.2 N 19 28 10 15 1009.3 - 2.4
20/12:00pm 19.8 18.5 18.1 90 1.1 N 22 32 12 17 1009.5 1009.4 2.2
20/11:30am 20.6 19.5 17.4 82 2.0 NNW 19 28 10 15 1009.8 - 0.4
20/11:00am 20.7 20.9 17.7 83 1.9 N 13 19 7 10 1009.4 - 0.4
20/10:30am 20.0 20.1 17.4 85 1.6 N 13 20 7 11 1009.3 - 0.4
20/10:00am 20.1 20.5 17.3 84 1.7 N 11 15 6 8 1009.5 - 0.2
20/09:30am 20.6 20.0 16.6 78 2.4 WNW 15 20 8 11 1009.9 - 0.0
20/09:00am 23.5 20.7 14.2 56 5.5 WNW 22 33 12 18 1009.8 1009.7 0.0
20/08:30am 24.1 21.1 13.6 52 6.1 WNW 22 30 12 16 1009.2 - 0.0
20/08:00am 24.4 19.3 13.0 49 6.6 W 32 43 17 23 1008.5 - 0.0

Latest Capital City Observations: Canberra | Sydney | Melbourne | Brisbane | Adelaide | Perth | Hobart | Darwin

Other Formats:

Comma delimited format used in spreadsheet applications
http://www.bom.gov.au/fwo/IDS60901/IDS60901.95671.axf

JavaScript Object Notation format (JSON) in row-major order
http://www.bom.gov.au/fwo/IDS60901/IDS60901.95671.json